Time;durP1;ratioP1;P1;durP2;ratioP2;P2;SDS_P1;SDS_P2;PMS_P1;PMS_P2;Temp;Humidity;BMP_temperature;BMP_pressure;BME280_temperature;BME280_humidity;BME280_pressure;Samples;Min_cycle;Max_cycle;Signal;HPM_P1;HPM_P2
2023/11/13 00:01:48;;;;;;;44.55;23.02;;;1.90;99.90;;;;;;4972496;28;20100;-80
2023/11/13 00:04:13;;;;;;;43.90;24.13;;;1.80;99.90;;;;;;4963628;28;20031;-77
2023/11/13 00:06:39;;;;;;;44.53;25.25;;;1.90;99.90;;;;;;5037229;28;20077;-81
2023/11/13 00:09:05;;;;;;;50.25;23.98;;;1.90;99.90;;;;;;4970919;28;20524;-81
2023/11/13 00:11:30;;;;;;;48.47;26.50;;;1.90;99.90;;;;;;4965599;28;20101;-77
2023/11/13 00:13:56;;;;;;;53.63;26.05;;;1.90;99.90;;;;;;5029984;28;20019;-77
2023/11/13 00:16:21;;;;;;;47.28;24.27;;;1.90;99.90;;;;;;5037126;28;20023;-76
2023/11/13 00:18:47;;;;;;;50.80;27.13;;;1.90;99.90;;;;;;5036994;28;20108;-76
2023/11/13 00:21:16;;;;;;;46.72;23.73;;;1.90;99.90;;;;;;5037074;28;20034;-77
2023/11/13 00:23:43;;;;;;;49.40;27.17;;;2.00;99.90;;;;;;5037319;28;20388;-77
2023/11/13 00:26:09;;;;;;;46.90;25.52;;;2.00;99.90;;;;;;5036920;28;20105;-81
2023/11/13 00:28:35;;;;;;;46.83;24.80;;;2.00;99.90;;;;;;4970738;28;20354;-81
2023/11/13 00:31:02;;;;;;;49.85;27.73;;;2.00;99.90;;;;;;4970313;28;20034;-76
2023/11/13 00:33:28;;;;;;;42.40;24.17;;;2.00;99.90;;;;;;5037709;28;20042;-81
2023/11/13 00:35:54;;;;;;;47.75;24.40;;;2.10;99.90;;;;;;5037048;28;20384;-76
2023/11/13 00:38:19;;;;;;;50.25;26.65;;;2.10;99.90;;;;;;4970879;28;20027;-81
2023/11/13 00:40:46;;;;;;;48.50;25.17;;;2.10;99.90;;;;;;4970258;28;20510;-81
2023/11/13 00:43:12;;;;;;;43.58;24.90;;;2.10;99.90;;;;;;5037219;28;20057;-76
2023/11/13 00:45:38;;;;;;;43.75;24.38;;;2.20;99.90;;;;;;5037026;28;20034;-81
2023/11/13 00:48:04;;;;;;;46.05;24.65;;;2.20;99.90;;;;;;4970590;28;20027;-82
2023/11/13 00:50:31;;;;;;;46.47;25.92;;;2.20;99.90;;;;;;5036702;28;20027;-76
2023/11/13 00:53:00;;;;;;;51.83;26.85;;;2.20;99.90;;;;;;4970245;28;20019;-80
2023/11/13 00:55:25;;;;;;;57.78;29.02;;;2.20;99.90;;;;;;4970148;28;20045;-76
2023/11/13 00:57:52;;;;;;;56.35;29.42;;;2.20;99.90;;;;;;4970044;28;20500;-80
2023/11/13 01:00:18;;;;;;;50.92;28.85;;;2.20;99.90;;;;;;4989806;28;20046;-76
2023/11/13 01:02:44;;;;;;;62.83;34.08;;;2.20;99.90;;;;;;5037429;28;20062;-76
2023/11/13 01:05:11;;;;;;;71.05;36.00;;;2.20;99.90;;;;;;5040198;28;20027;-77
2023/11/13 01:07:37;;;;;;;71.25;36.72;;;2.10;99.90;;;;;;5040726;28;20030;-80
2023/11/13 01:10:04;;;;;;;68.50;32.95;;;2.10;99.90;;;;;;4973260;28;20031;-80
2023/11/13 01:12:30;;;;;;;58.42;31.83;;;2.10;99.90;;;;;;5038341;28;20546;-81
2023/11/13 01:14:55;;;;;;;57.45;29.85;;;2.10;99.90;;;;;;5056966;28;20019;-81
2023/11/13 01:17:21;;;;;;;62.33;31.58;;;2.00;99.90;;;;;;4973497;28;20480;-76
2023/11/13 01:19:47;;;;;;;57.97;30.55;;;1.90;99.90;;;;;;4973022;28;20089;-80
2023/11/13 01:22:13;;;;;;;50.72;27.08;;;2.00;99.90;;;;;;4973025;28;20408;-76
2023/11/13 01:24:39;;;;;;;50.33;26.42;;;2.00;99.90;;;;;;5040414;28;20030;-76
2023/11/13 01:27:04;;;;;;;48.28;26.17;;;2.00;99.90;;;;;;5040183;28;20535;-80
2023/11/13 01:29:30;;;;;;;49.35;28.75;;;2.00;99.90;;;;;;4973095;28;20022;-76
2023/11/13 01:31:56;;;;;;;63.47;30.15;;;2.00;99.90;;;;;;5040294;28;20491;-79
2023/11/13 01:34:21;;;;;;;57.83;29.80;;;2.00;99.90;;;;;;4973062;28;20031;-76
2023/11/13 01:36:47;;;;;;;54.75;29.50;;;2.10;99.90;;;;;;5040092;28;20027;-76
2023/11/13 01:39:13;;;;;;;52.60;28.35;;;2.10;99.90;;;;;;4972812;28;20039;-76
2023/11/13 01:41:39;;;;;;;49.90;27.52;;;2.10;99.90;;;;;;5039925;28;20023;-80
2023/11/13 01:44:05;;;;;;;50.97;28.13;;;2.10;99.90;;;;;;4972730;28;20041;-80
2023/11/13 01:46:32;;;;;;;56.80;28.70;;;2.10;99.90;;;;;;5039534;28;20022;-76
2023/11/13 01:48:59;;;;;;;58.58;29.90;;;2.10;99.90;;;;;;5040087;28;20105;-76
2023/11/13 01:51:26;;;;;;;53.83;29.13;;;2.10;99.90;;;;;;5039678;28;20430;-76
2023/11/13 01:53:53;;;;;;;65.63;34.15;;;2.10;99.90;;;;;;4972955;28;20045;-76
2023/11/13 01:56:21;;;;;;;45.58;24.02;;;2.10;99.90;;;;;;4972752;28;20110;-80
2023/11/13 01:58:47;;;;;;;54.60;29.73;;;2.10;99.90;;;;;;4972694;28;20035;-76
2023/11/13 02:01:13;;;;;;;60.28;32.70;;;2.10;99.90;;;;;;5039161;28;20077;-80
2023/11/13 02:03:39;;;;;;;64.50;32.88;;;2.10;99.90;;;;;;5039490;28;20023;-76
2023/11/13 02:06:06;;;;;;;58.65;30.33;;;2.10;99.90;;;;;;4972471;28;20551;-76
2023/11/13 02:08:32;;;;;;;51.15;27.73;;;2.10;99.90;;;;;;4972727;28;20031;-76
2023/11/13 02:11:06;;;;;;;42.30;23.90;;;2.10;99.90;;;;;;4972574;28;20483;-76
2023/11/13 02:13:32;;;;;;;38.92;22.60;;;2.10;99.90;;;;;;5039317;28;20023;-76
2023/11/13 02:15:58;;;;;;;38.40;22.63;;;2.10;99.90;;;;;;5038379;28;20045;-80
2023/11/13 02:18:25;;;;;;;41.67;23.95;;;2.10;99.90;;;;;;4972027;28;20361;-76
2023/11/13 02:20:51;;;;;;;38.83;22.30;;;2.10;99.90;;;;;;4972309;28;20083;-76
2023/11/13 02:23:17;;;;;;;41.55;22.35;;;2.20;99.90;;;;;;4972342;28;20023;-80
2023/11/13 02:25:50;;;;;;;43.28;24.98;;;2.20;99.90;;;;;;4972532;28;20031;-80
2023/11/13 02:28:16;;;;;;;51.13;25.83;;;2.20;99.90;;;;;;5039038;28;20499;-79
2023/11/13 02:30:42;;;;;;;49.42;28.27;;;2.10;99.90;;;;;;4972244;28;20019;-80
2023/11/13 02:33:07;;;;;;;54.58;29.77;;;2.10;99.90;;;;;;4972120;28;20026;-77
2023/11/13 02:35:33;;;;;;;53.40;29.33;;;2.00;99.90;;;;;;4972346;28;20365;-80
2023/11/13 02:38:00;;;;;;;57.00;29.05;;;2.10;99.90;;;;;;4971953;28;20025;-77
2023/11/13 02:40:26;;;;;;;52.35;30.83;;;2.00;99.90;;;;;;5038836;28;20133;-80
2023/11/13 02:42:51;;;;;;;63.10;30.25;;;2.00;99.90;;;;;;5038723;28;20058;-80
2023/11/13 02:45:17;;;;;;;53.55;31.85;;;2.00;99.90;;;;;;5038901;28;20019;-77
2023/11/13 02:47:43;;;;;;;64.00;32.30;;;2.10;99.90;;;;;;5038463;28;20030;-80
2023/11/13 02:50:12;;;;;;;55.83;30.45;;;2.00;99.90;;;;;;5038771;28;20022;-80
2023/11/13 02:52:38;;;;;;;51.38;27.75;;;2.00;99.90;;;;;;4971885;28;20058;-80
2023/11/13 02:55:05;;;;;;;63.00;31.83;;;2.00;99.90;;;;;;5038772;28;20058;-80
2023/11/13 02:57:32;;;;;;;59.78;30.98;;;2.10;99.90;;;;;;5038390;28;20472;-80
2023/11/13 02:59:57;;;;;;;51.55;30.42;;;2.00;99.90;;;;;;5038482;28;20114;-80
2023/11/13 03:02:23;;;;;;;52.10;27.10;;;2.00;99.90;;;;;;4971450;28;20145;-80
2023/11/13 03:04:49;;;;;;;52.38;26.25;;;2.00;99.90;;;;;;4971893;28;20033;-80
2023/11/13 03:07:15;;;;;;;47.05;27.25;;;2.00;99.90;;;;;;5025515;28;20023;-76
2023/11/13 03:09:40;;;;;;;50.08;23.73;;;2.00;99.90;;;;;;5038526;28;20065;-79
2023/11/13 03:12:07;;;;;;;47.55;24.13;;;2.00;99.90;;;;;;5038135;28;20080;-77
2023/11/13 03:14:32;;;;;;;45.53;26.55;;;2.00;99.90;;;;;;5038412;28;20139;-76
2023/11/13 03:16:58;;;;;;;45.63;26.67;;;2.00;99.90;;;;;;4971550;28;20048;-80
2023/11/13 03:19:24;;;;;;;42.83;23.50;;;2.00;99.90;;;;;;4971432;28;20026;-81
2023/11/13 03:21:49;;;;;;;45.45;26.08;;;2.00;99.90;;;;;;4971405;28;20060;-81
2023/11/13 03:24:15;;;;;;;48.15;25.73;;;2.00;99.90;;;;;;4971702;28;20468;-80
2023/11/13 03:26:41;;;;;;;49.97;26.80;;;2.10;99.90;;;;;;5037821;28;20110;-79
2023/11/13 03:29:06;;;;;;;48.80;27.05;;;2.10;99.90;;;;;;4971374;28;20027;-80
2023/11/13 03:31:32;;;;;;;46.10;25.33;;;2.10;99.90;;;;;;5037767;28;20034;-80
2023/11/13 03:33:58;;;;;;;41.45;23.25;;;2.10;99.90;;;;;;4971516;28;20027;-80
2023/11/13 03:36:23;;;;;;;37.80;21.42;;;2.10;99.90;;;;;;4971174;28;20469;-80
2023/11/13 03:38:49;;;;;;;36.58;21.80;;;2.10;99.90;;;;;;4971375;28;20152;-80
2023/11/13 03:41:15;;;;;;;34.00;20.38;;;2.10;99.90;;;;;;4971149;28;20030;-76
2023/11/13 03:43:40;;;;;;;36.10;21.60;;;2.10;99.90;;;;;;5037884;28;20459;-79
2023/11/13 03:46:06;;;;;;;34.58;19.52;;;2.10;99.90;;;;;;4970808;28;20117;-77
2023/11/13 03:48:32;;;;;;;28.73;19.33;;;2.20;99.90;;;;;;4971212;28;20089;-77
2023/11/13 03:50:57;;;;;;;33.30;20.45;;;2.20;99.90;;;;;;4971039;28;20464;-78
2023/11/13 03:53:23;;;;;;;34.55;20.60;;;2.20;99.90;;;;;;5037756;28;20038;-76
2023/11/13 03:55:49;;;;;;;32.13;20.05;;;2.20;99.90;;;;;;4970965;28;20030;-80
2023/11/13 03:58:14;;;;;;;31.77;20.27;;;2.20;99.90;;;;;;4971063;28;20031;-80
2023/11/13 04:00:40;;;;;;;40.92;24.23;;;2.20;99.90;;;;;;4970822;28;20081;-80
2023/11/13 04:03:06;;;;;;;44.78;24.50;;;2.20;99.90;;;;;;4980337;28;20134;-77
2023/11/13 04:05:32;;;;;;;39.20;23.25;;;2.20;99.90;;;;;;5037217;28;20042;-77
2023/11/13 04:07:58;;;;;;;36.20;22.73;;;2.30;99.90;;;;;;4970897;28;20029;-77
2023/11/13 04:10:24;;;;;;;37.72;21.63;;;2.30;99.90;;;;;;5037576;28;20106;-80
2023/11/13 04:12:50;;;;;;;40.78;21.98;;;2.30;99.90;;;;;;4971050;28;20019;-77
2023/11/13 04:15:16;;;;;;;36.55;20.45;;;2.30;99.90;;;;;;5037196;28;20080;-81
2023/11/13 04:17:42;;;;;;;34.97;20.95;;;2.30;99.90;;;;;;4970871;28;20076;-80
2023/11/13 04:20:12;;;;;;;37.65;19.48;;;2.30;99.90;;;;;;5036912;28;20073;-81
2023/11/13 04:22:39;;;;;;;30.65;18.13;;;2.30;99.90;;;;;;4970771;28;20015;-80
2023/11/13 04:25:05;;;;;;;35.67;19.40;;;2.30;99.90;;;;;;4970642;28;20031;-76
2023/11/13 04:27:32;;;;;;;33.00;19.35;;;2.30;99.90;;;;;;4970901;28;20015;-80
2023/11/13 04:29:58;;;;;;;32.05;19.15;;;2.20;99.90;;;;;;4970597;28;20410;-77
2023/11/13 04:32:24;;;;;;;29.98;19.98;;;2.30;99.90;;;;;;4970790;28;20015;-80
2023/11/13 04:34:50;;;;;;;34.63;19.63;;;2.30;99.90;;;;;;4970614;28;20038;-80
2023/11/13 04:37:17;;;;;;;31.15;18.60;;;2.30;99.90;;;;;;5036752;28;20049;-80
2023/11/13 04:39:44;;;;;;;28.77;19.40;;;2.30;99.90;;;;;;5024204;28;20470;-76
2023/11/13 04:42:09;;;;;;;35.92;20.35;;;2.30;99.90;;;;;;5040922;28;20015;-77
2023/11/13 04:44:36;;;;;;;32.50;18.98;;;2.30;99.90;;;;;;5040808;28;20416;-76
2023/11/13 04:47:01;;;;;;;31.85;19.17;;;2.30;99.90;;;;;;4973874;28;20514;-80
2023/11/13 04:49:27;;;;;;;33.78;19.02;;;2.30;99.90;;;;;;4974064;28;20054;-80
2023/11/13 04:51:53;;;;;;;32.65;19.42;;;2.30;99.90;;;;;;5040212;28;20031;-79
2023/11/13 04:54:19;;;;;;;33.00;20.42;;;2.30;99.90;;;;;;4973394;28;20027;-77
2023/11/13 04:56:44;;;;;;;31.33;18.98;;;2.30;99.90;;;;;;5040841;28;20487;-80
2023/11/13 04:59:11;;;;;;;33.70;19.73;;;2.30;99.90;;;;;;4973542;28;20484;-76
2023/11/13 05:01:37;;;;;;;37.90;20.63;;;2.30;99.90;;;;;;4973072;28;20054;-80
2023/11/13 05:04:05;;;;;;;31.88;19.88;;;2.30;99.90;;;;;;4973606;28;20046;-76
2023/11/13 05:06:31;;;;;;;33.63;19.15;;;2.30;99.90;;;;;;4973638;28;20038;-76
2023/11/13 05:08:57;;;;;;;37.72;20.88;;;2.30;99.90;;;;;;4973498;28;20022;-80
2023/11/13 05:11:23;;;;;;;32.45;19.02;;;2.30;99.90;;;;;;5040344;28;20031;-76
2023/11/13 05:13:53;;;;;;;36.60;20.90;;;2.30;99.90;;;;;;5040486;28;20034;-76
2023/11/13 05:16:20;;;;;;;43.75;25.00;;;2.30;99.90;;;;;;5040371;28;20498;-80
2023/11/13 05:18:46;;;;;;;38.33;24.15;;;2.30;99.90;;;;;;4972975;28;20507;-80
2023/11/13 05:21:16;;;;;;;42.15;24.02;;;2.30;99.90;;;;;;4973283;28;20031;-81
2023/11/13 05:23:42;;;;;;;45.85;23.42;;;2.30;99.90;;;;;;4973381;28;20015;-80
2023/11/13 05:26:07;;;;;;;44.10;22.95;;;2.30;99.90;;;;;;4973005;28;20499;-77
2023/11/13 05:28:33;;;;;;;42.28;21.98;;;2.30;99.90;;;;;;5040224;28;20035;-77
2023/11/13 05:30:59;;;;;;;32.53;20.00;;;2.20;99.90;;;;;;5040064;28;20018;-76
2023/11/13 05:33:25;;;;;;;31.63;19.73;;;2.20;99.90;;;;;;4972732;28;20023;-81
2023/11/13 05:35:50;;;;;;;35.28;19.05;;;2.20;99.90;;;;;;5040167;28;20019;-77
2023/11/13 05:38:16;;;;;;;36.25;21.75;;;2.20;99.90;;;;;;4972989;28;20081;-80
2023/11/13 05:40:45;;;;;;;37.22;21.83;;;2.20;99.90;;;;;;4973010;28;20047;-80
2023/11/13 05:43:11;;;;;;;41.55;22.00;;;2.20;99.90;;;;;;5040068;28;20499;-80
2023/11/13 05:45:37;;;;;;;37.58;22.92;;;2.20;99.90;;;;;;4973157;28;20031;-80
2023/11/13 05:48:03;;;;;;;38.70;20.60;;;2.20;99.90;;;;;;4972794;28;20051;-76
2023/11/13 05:50:29;;;;;;;31.80;19.30;;;2.10;99.90;;;;;;5038501;28;20054;-76
2023/11/13 05:52:55;;;;;;;40.08;22.23;;;2.10;99.90;;;;;;5039441;28;20058;-76
2023/11/13 05:55:22;;;;;;;44.72;25.00;;;2.10;99.90;;;;;;5039462;28;20030;-80
2023/11/13 05:57:48;;;;;;;41.63;25.67;;;2.20;99.90;;;;;;5031177;28;20027;-80
2023/11/13 06:00:16;;;;;;;45.95;24.05;;;2.10;99.90;;;;;;5039678;28;20035;-76
2023/11/13 06:02:42;;;;;;;41.30;23.65;;;2.10;99.90;;;;;;4972499;28;20051;-80
2023/11/13 06:05:08;;;;;;;43.38;25.00;;;2.20;99.90;;;;;;4972606;28;20030;-80
2023/11/13 06:07:36;;;;;;;39.20;23.08;;;2.20;99.90;;;;;;5039197;28;20357;-77
2023/11/13 06:10:07;;;;;;;45.17;24.77;;;2.20;99.90;;;;;;5039450;28;20023;-77
2023/11/13 06:12:33;;;;;;;43.15;24.70;;;2.20;99.90;;;;;;5039278;28;20023;-80
2023/11/13 06:14:59;;;;;;;42.17;24.23;;;2.20;99.90;;;;;;4972421;28;20072;-81
2023/11/13 06:17:25;;;;;;;46.67;25.58;;;2.20;99.90;;;;;;5039062;28;20019;-76
2023/11/13 06:19:53;;;;;;;42.85;24.02;;;2.20;99.90;;;;;;5038235;28;20057;-82
2023/11/13 06:22:20;;;;;;;36.33;21.08;;;2.20;99.90;;;;;;5055497;28;20023;-82
2023/11/13 06:24:46;;;;;;;38.67;23.20;;;2.20;99.90;;;;;;4972532;28;20030;-81
2023/11/13 06:27:12;;;;;;;40.85;24.02;;;2.20;99.90;;;;;;4971106;28;20048;-76
2023/11/13 06:29:38;;;;;;;40.78;22.15;;;2.30;99.90;;;;;;4972226;28;20030;-81
2023/11/13 06:32:05;;;;;;;36.50;20.92;;;2.40;99.90;;;;;;4971257;28;20031;-81
2023/11/13 06:34:30;;;;;;;39.58;23.75;;;2.30;99.90;;;;;;4972255;28;20019;-81
2023/11/13 06:36:56;;;;;;;42.50;22.60;;;2.40;99.90;;;;;;5038741;28;20114;-81
2023/11/13 06:39:22;;;;;;;40.58;23.52;;;2.40;99.90;;;;;;4972142;28;20522;-80
2023/11/13 06:41:49;;;;;;;36.42;20.40;;;2.50;99.90;;;;;;4971642;28;20026;-81
2023/11/13 06:44:14;;;;;;;42.30;24.15;;;2.50;99.90;;;;;;5038417;28;20037;-81
2023/11/13 06:46:40;;;;;;;39.45;22.17;;;2.60;99.90;;;;;;4971749;28;20423;-76
2023/11/13 06:49:07;;;;;;;40.58;22.88;;;2.60;99.90;;;;;;4971535;28;20049;-76
2023/11/13 06:51:33;;;;;;;33.03;20.30;;;2.60;99.90;;;;;;5038565;28;20019;-80
2023/11/13 06:54:00;;;;;;;35.15;20.08;;;2.70;99.90;;;;;;5037871;28;20027;-80
2023/11/13 06:56:26;;;;;;;30.65;19.02;;;2.70;99.90;;;;;;5038229;28;20122;-76
2023/11/13 06:58:51;;;;;;;34.22;18.90;;;2.80;99.90;;;;;;5038439;28;20496;-81
2023/11/13 07:01:20;;;;;;;31.95;18.55;;;2.80;99.90;;;;;;4970392;28;20027;-76
2023/11/13 07:03:46;;;;;;;35.30;19.75;;;2.80;99.90;;;;;;4971138;28;20027;-80
2023/11/13 07:06:12;;;;;;;29.17;18.40;;;2.90;99.90;;;;;;4971598;28;20030;-81
2023/11/13 07:08:38;;;;;;;30.75;18.80;;;2.90;99.90;;;;;;5037733;28;20155;-81
2023/11/13 07:11:04;;;;;;;25.83;16.83;;;3.00;99.90;;;;;;4971315;28;20140;-80
2023/11/13 07:13:30;;;;;;;29.92;17.92;;;3.00;99.90;;;;;;5037725;28;20034;-81
2023/11/13 07:15:56;;;;;;;28.95;17.08;;;3.00;99.90;;;;;;5037787;28;20031;-81
2023/11/13 07:18:22;;;;;;;28.02;18.00;;;3.00;99.90;;;;;;4970986;28;20057;-81
2023/11/13 07:20:50;;;;;;;27.55;16.42;;;3.00;99.90;;;;;;4971215;28;20015;-81
2023/11/13 07:23:17;;;;;;;29.00;17.38;;;3.00;99.90;;;;;;4971069;28;20488;-81
2023/11/13 07:25:47;;;;;;;31.40;18.23;;;3.10;99.90;;;;;;5037820;28;20023;-75
2023/11/13 07:28:17;;;;;;;28.75;17.83;;;3.10;99.90;;;;;;4970717;28;20027;-81
2023/11/13 07:30:42;;;;;;;33.30;16.50;;;3.20;99.90;;;;;;4971390;28;20031;-78
2023/11/13 07:33:08;;;;;;;26.02;16.65;;;3.20;99.90;;;;;;4971397;28;20023;-82
2023/11/13 07:35:36;;;;;;;25.30;14.60;;;3.20;99.90;;;;;;4971257;28;20019;-77
2023/11/13 07:38:02;;;;;;;27.17;16.10;;;3.20;99.90;;;;;;5037847;28;20023;-80
2023/11/13 07:40:28;;;;;;;27.13;16.25;;;3.30;99.90;;;;;;4970970;28;20030;-77
2023/11/13 07:42:54;;;;;;;29.20;17.00;;;3.30;99.90;;;;;;5033425;28;20049;-77
2023/11/13 07:45:20;;;;;;;29.50;16.33;;;3.40;99.90;;;;;;4969143;28;20014;-76
2023/11/13 07:47:45;;;;;;;27.90;16.63;;;3.40;99.90;;;;;;5036949;28;20031;-77
2023/11/13 07:50:11;;;;;;;27.10;15.20;;;3.50;99.90;;;;;;5037151;28;20015;-77
2023/11/13 07:52:44;;;;;;;23.83;14.85;;;3.50;99.90;;;;;;5036130;28;20034;-77
2023/11/13 07:55:14;;;;;;;22.60;13.73;;;3.60;99.90;;;;;;5036628;28;20495;-77
2023/11/13 07:57:41;;;;;;;21.95;14.18;;;3.60;99.90;;;;;;5037226;28;20416;-77
2023/11/13 08:00:11;;;;;;;22.77;13.98;;;3.60;99.90;;;;;;5037654;28;20481;-77
2023/11/13 08:02:45;;;;;;;25.90;14.30;;;3.60;99.90;;;;;;5035733;28;20047;-77
2023/11/13 08:05:16;;;;;;;27.90;15.32;;;3.70;99.90;;;;;;4969114;28;20085;-82
2023/11/13 08:07:43;;;;;;;19.10;12.77;;;3.70;99.90;;;;;;5021554;28;20126;-82
2023/11/13 08:10:14;;;;;;;20.55;13.43;;;3.70;99.90;;;;;;4969976;28;20026;-82
2023/11/13 08:12:45;;;;;;;21.55;14.10;;;3.80;99.90;;;;;;4971187;28;20042;-82
2023/11/13 08:15:14;;;;;;;22.20;13.40;;;3.80;99.90;;;;;;5041006;28;20469;-76
2023/11/13 08:17:42;;;;;;;20.13;13.00;;;3.90;99.90;;;;;;4973596;28;20511;-76
2023/11/13 08:20:09;;;;;;;19.83;13.15;;;4.00;99.90;;;;;;5039045;28;20133;-76
2023/11/13 08:22:35;;;;;;;21.17;12.77;;;4.10;99.90;;;;;;5040754;28;20450;-81
2023/11/13 08:25:12;;;;;;;20.40;12.63;;;4.10;99.90;;;;;;4973661;28;20054;-76
2023/11/13 08:27:45;;;;;;;27.83;13.32;;;4.20;99.90;;;;;;4964165;28;20385;-81
2023/11/13 08:30:15;;;;;;;;;;;4.30;99.90;;;;;;4971736;28;20029;-81
2023/11/13 08:32:42;;;;;;;21.52;13.57;;;4.30;99.90;;;;;;4970743;28;20004;-81
2023/11/13 08:35:12;;;;;;;19.83;12.88;;;4.40;99.90;;;;;;5040233;28;20106;-77
2023/11/13 08:37:47;;;;;;;22.67;13.65;;;4.50;99.90;;;;;;5024956;28;20435;-81
2023/11/13 08:40:18;;;;;;;17.95;11.65;;;4.60;99.90;;;;;;4972074;28;20035;-81
2023/11/13 08:42:44;;;;;;;21.52;12.60;;;4.60;99.90;;;;;;5039322;28;20043;-81
2023/11/13 08:45:15;;;;;;;20.35;13.00;;;4.70;99.90;;;;;;4971361;28;20037;-81
2023/11/13 08:47:45;;;;;;;20.05;11.88;;;4.80;99.90;;;;;;4969283;28;20080;-76
2023/11/13 08:50:12;;;;;;;22.92;14.00;;;4.90;99.90;;;;;;4968573;28;20015;-77
2023/11/13 08:52:42;;;;;;;21.70;12.18;;;4.90;99.90;;;;;;5035097;28;20034;-81
2023/11/13 08:55:12;;;;;;;19.77;12.70;;;5.00;99.90;;;;;;5037006;28;20031;-77
2023/11/13 08:57:41;;;;;;;19.88;12.57;;;5.10;99.90;;;;;;5037100;28;20022;-76
2023/11/13 09:00:24;;;;;;;23.20;12.00;;;5.10;99.90;;;;;;5037443;28;20039;-77
2023/11/13 09:02:56;;;;;;;17.83;11.35;;;5.20;99.90;;;;;;4972643;28;20046;-81
2023/11/13 09:05:26;;;;;;;15.73;10.77;;;5.30;99.90;;;;;;4973709;28;20019;-81
2023/11/13 09:07:58;;;;;;;18.10;10.93;;;5.30;99.90;;;;;;4961331;28;20059;-77
2023/11/13 09:10:27;;;;;;;18.85;11.25;;;5.40;99.90;;;;;;5040576;28;20058;-77
2023/11/13 09:12:58;;;;;;;17.25;11.48;;;5.40;99.90;;;;;;4973417;28;20022;-81
2023/11/13 09:15:25;;;;;;;15.32;11.13;;;5.40;99.90;;;;;;4973430;28;20069;-81
2023/11/13 09:17:54;;;;;;;14.90;9.45;;;5.50;99.90;;;;;;5023902;28;20087;-77
2023/11/13 09:20:20;;;;;;;13.90;10.05;;;5.50;99.90;;;;;;4972982;28;20047;-81
2023/11/13 09:22:46;;;;;;;17.42;10.52;;;5.50;99.90;;;;;;4973771;28;20031;-76
2023/11/13 09:25:14;;;;;;;21.17;10.40;;;5.60;99.90;;;;;;5039603;28;20037;-77
2023/11/13 09:27:43;;;;;;;16.77;10.48;;;5.60;99.90;;;;;;5040574;28;20034;-77
2023/11/13 09:30:10;;;;;;;14.05;9.63;;;5.60;99.90;;;;;;5040105;28;20534;-81
2023/11/13 09:32:39;;;;;;;17.98;10.32;;;5.70;99.90;;;;;;4973325;28;20393;-81
2023/11/13 09:35:06;;;;;;;17.55;10.55;;;5.70;99.90;;;;;;4973093;28;20093;-81
2023/11/13 09:37:32;;;;;;;16.25;10.65;;;5.80;99.90;;;;;;5040494;28;20027;-77
2023/11/13 09:39:58;;;;;;;17.48;10.60;;;5.90;99.90;;;;;;4972806;28;20034;-81
2023/11/13 09:42:27;;;;;;;15.38;10.15;;;5.90;99.90;;;;;;4973087;28;20030;-81
2023/11/13 09:44:56;;;;;;;14.77;9.88;;;5.90;99.90;;;;;;4972846;28;20102;-82
2023/11/13 09:47:28;;;;;;;13.00;9.05;;;5.90;99.90;;;;;;4973099;28;20080;-77
2023/11/13 09:50:15;;;;;;;16.40;9.45;;;6.00;99.90;;;;;;5039815;28;20027;-77
2023/11/13 09:52:49;;;;;;;13.57;9.10;;;6.00;99.90;;;;;;5039878;28;21536;-81
2023/11/13 09:55:18;;;;;;;13.35;8.85;;;6.00;99.90;;;;;;4973044;28;20035;-81
2023/11/13 09:57:52;;;;;;;14.00;8.40;;;6.00;99.90;;;;;;4972569;28;20023;-77
2023/11/13 10:00:23;;;;;;;16.08;9.27;;;6.10;99.90;;;;;;4972918;28;20035;-77
2023/11/13 10:02:51;;;;;;;15.25;9.18;;;6.10;99.90;;;;;;5032451;28;20147;-82
2023/11/13 10:05:17;;;;;;;18.02;9.40;;;6.10;99.90;;;;;;4966347;28;20027;-81
2023/11/13 10:07:48;;;;;;;13.23;9.15;;;6.10;99.90;;;;;;5041692;28;20027;-82
2023/11/13 10:10:19;;;;;;;11.18;9.40;;;6.20;99.90;;;;;;5039699;28;20602;-76
2023/11/13 10:12:45;;;;;;;14.35;8.02;;;6.20;99.90;;;;;;4961248;28;20031;-77
2023/11/13 10:15:14;;;;;;;9.25;7.40;;;6.30;99.90;;;;;;5039391;28;20392;-77
2023/11/13 10:17:48;;;;;;;13.30;8.23;;;6.30;99.90;;;;;;5039513;28;20031;-81
2023/11/13 10:20:19;;;;;;;11.98;7.38;;;6.30;99.90;;;;;;5039243;28;20042;-82
2023/11/13 10:22:55;;;;;;;11.93;7.63;;;6.40;99.90;;;;;;4972544;28;20037;-77
2023/11/13 10:25:21;;;;;;;8.77;7.03;;;6.40;99.90;;;;;;4972423;28;20029;-81
2023/11/13 10:28:00;;;;;;;14.13;7.00;;;6.40;99.90;;;;;;5039304;28;20031;-82
2023/11/13 10:30:27;;;;;;;10.85;7.05;;;6.50;99.90;;;;;;4972431;28;20023;-81
2023/11/13 10:32:53;;;;;;;11.55;6.90;;;6.40;99.90;;;;;;5038945;28;20023;-82
2023/11/13 10:35:38;;;;;;;12.45;8.50;;;6.40;99.90;;;;;;5038229;28;20019;-82
2023/11/13 10:38:03;;;;;;;10.38;6.65;;;6.40;99.90;;;;;;4972076;28;20115;-77
2023/11/13 10:40:33;;;;;;;9.85;8.25;;;6.50;99.90;;;;;;5035580;28;20118;-81
2023/11/13 10:43:04;;;;;;;10.45;7.88;;;6.50;99.90;;;;;;4968546;28;20022;-77
2023/11/13 10:45:32;;;;;;;10.07;6.53;;;6.50;98.00;;;;;;5038889;28;20027;-83
2023/11/13 10:47:58;;;;;;;14.48;7.65;;;6.50;98.10;;;;;;4971923;28;20015;-77
2023/11/13 10:50:24;;;;;;;7.30;6.60;;;6.50;98.90;;;;;;4972318;28;20030;-77
2023/11/13 10:52:52;;;;;;;11.05;7.47;;;6.50;92.40;;;;;;4971936;28;20480;-77
2023/11/13 10:55:20;;;;;;;10.63;7.20;;;6.50;92.30;;;;;;4972102;28;20080;-82
2023/11/13 10:57:46;;;;;;;12.57;7.00;;;6.50;92.20;;;;;;4971913;28;20035;-76
2023/11/13 11:00:12;;;;;;;9.07;6.03;;;6.50;91.60;;;;;;4972395;28;20455;-77
2023/11/13 11:02:45;;;;;;;8.35;6.47;;;6.50;94.70;;;;;;5051605;28;20068;-77
2023/11/13 11:05:22;;;;;;;8.88;6.60;;;6.60;97.00;;;;;;5052224;28;20078;-82
2023/11/13 11:07:54;;;;;;;10.57;7.68;;;6.50;91.50;;;;;;5041463;28;20017;-82
2023/11/13 11:10:25;;;;;;;12.27;6.68;;;6.60;96.50;;;;;;5053238;28;20021;-81
2023/11/13 11:13:26;;;;;;;8.70;6.05;;;6.60;96.50;;;;;;5052354;28;20021;-77
2023/11/13 11:16:13;;;;;;;9.23;6.82;;;6.70;99.90;;;;;;4991743;28;20033;-82
2023/11/13 11:18:51;;;;;;;11.35;6.70;;;6.70;96.50;;;;;;5049443;28;20052;-82
2023/11/13 11:22:00;;;;;;;11.30;7.25;;;6.60;92.20;;;;;;5053174;28;20113;-82
2023/11/13 11:24:31;;;;;;;14.45;8.30;;;6.80;93.60;;;;;;5041055;28;20032;-77
2023/11/13 11:27:01;;;;;;;21.75;9.07;;;6.80;94.70;;;;;;5052679;28;20020;-78
2023/11/13 11:29:43;;;;;;;14.30;8.73;;;6.70;91.60;;;;;;5051724;28;20042;-82
2023/11/13 11:32:13;;;;;;;17.58;10.85;;;6.60;85.60;;;;;;5038666;28;20096;-82
2023/11/13 11:34:52;;;;;;;19.63;12.00;;;6.60;85.60;;;;;;5051478;28;20112;-77
2023/11/13 11:37:19;;;;;;;15.63;9.23;;;6.60;82.80;;;;;;5051651;28;20028;-78
2023/11/13 11:39:53;;;;;;;12.63;9.95;;;6.70;87.40;;;;;;5051393;28;20036;-82
2023/11/13 11:42:31;;;;;;;9.55;7.35;;;6.70;82.50;;;;;;5051695;28;20070;-82
2023/11/13 11:44:57;;;;;;;8.70;7.60;;;6.80;84.20;;;;;;5051147;28;20398;-77
2023/11/13 11:47:25;;;;;;;10.63;8.55;;;6.80;80.70;;;;;;5051524;28;20026;-77
2023/11/13 11:49:52;;;;;;;7.68;5.70;;;6.70;80.20;;;;;;5052362;28;20029;-77
2023/11/13 11:52:38;;;;;;;11.13;9.27;;;6.70;80.40;;;;;;5051276;28;20009;-82
2023/11/13 11:55:04;;;;;;;9.38;7.43;;;6.70;80.40;;;;;;5051402;28;20510;-82
2023/11/13 11:57:30;;;;;;;10.10;8.93;;;6.70;80.80;;;;;;5051181;28;20017;-77
2023/11/13 11:59:59;;;;;;;13.27;8.15;;;6.70;83.00;;;;;;5051263;28;20395;-83
2023/11/13 12:02:28;;;;;;;7.68;6.25;;;6.60;80.60;;;;;;5051044;28;20056;-82
2023/11/13 12:04:54;;;;;;;7.35;6.72;;;6.70;80.40;;;;;;5053023;28;20398;-78
2023/11/13 12:07:20;;;;;;;23.10;10.45;;;6.60;77.50;;;;;;5051044;28;20024;-78
2023/11/13 12:09:45;;;;;;;20.33;7.68;;;6.60;77.50;;;;;;5052548;28;20033;-77
2023/11/13 12:12:12;;;;;;;10.25;6.30;;;6.50;76.20;;;;;;5051154;28;20028;-77
2023/11/13 12:14:37;;;;;;;45.20;19.63;;;6.50;76.60;;;;;;5052497;28;20013;-82
2023/11/13 12:17:07;;;;;;;235.23;97.55;;;6.60;77.90;;;;;;5050962;28;20025;-82
2023/11/13 12:19:32;;;;;;;87.35;38.47;;;6.60;77.90;;;;;;5047648;28;20495;-82
2023/11/13 12:21:58;;;;;;;199.13;79.10;;;6.50;79.80;;;;;;5048684;28;20135;-82
2023/11/13 12:24:25;;;;;;;114.38;44.80;;;6.60;79.30;;;;;;5052312;28;20025;-77
2023/11/13 12:26:56;;;;;;;148.55;56.65;;;6.50;78.10;;;;;;5052193;28;20024;-77
2023/11/13 12:29:22;;;;;;;101.57;38.60;;;6.60;78.30;;;;;;5051166;28;20017;-77
2023/11/13 12:31:53;;;;;;;329.48;127.25;;;6.50;77.80;;;;;;5050635;28;20415;-78
2023/11/13 12:34:20;;;;;;;86.43;36.95;;;6.60;78.00;;;;;;5051014;28;20037;-77
2023/11/13 12:36:47;;;;;;;39.47;16.13;;;6.70;77.70;;;;;;5050682;28;20874;-77
2023/11/13 12:39:19;;;;;;;62.00;15.85;;;6.80;79.30;;;;;;5052483;28;20429;-77
2023/11/13 12:41:48;;;;;;;100.83;30.07;;;6.80;76.90;;;;;;5052505;28;20029;-77